createdAt,value
2023-03-18T00:01:13.741Z,1006.39
2023-03-18T00:05:08.468Z,1006.44
2023-03-18T00:10:08.796Z,1006.35
2023-03-18T00:15:12.164Z,1006.34
2023-03-18T00:20:08.268Z,1006.21
2023-03-18T00:25:08.326Z,1006.28
2023-03-18T00:30:08.382Z,1006.37
2023-03-18T00:35:08.445Z,1006.3
2023-03-18T00:40:08.524Z,1006.53
2023-03-18T00:45:08.561Z,1006.56
2023-03-18T00:50:08.632Z,1006.5
2023-03-18T00:55:08.691Z,1006.37
2023-03-18T01:00:08.750Z,1006.44
2023-03-18T01:05:08.857Z,1006.46
2023-03-18T01:10:08.888Z,1006.5
2023-03-18T01:15:08.998Z,1006.62
2023-03-18T01:20:08.105Z,1006.62
2023-03-18T01:25:08.175Z,1006.62
2023-03-18T01:30:08.435Z,1006.48
2023-03-18T01:35:08.495Z,1006.53
2023-03-18T01:40:08.564Z,1006.66
2023-03-18T01:45:08.593Z,1006.68
2023-03-18T01:50:08.636Z,1006.63
2023-03-18T01:55:08.660Z,1006.67
2023-03-18T02:00:08.676Z,1006.76
2023-03-18T02:05:08.728Z,1006.7
2023-03-18T02:10:08.774Z,1006.78
2023-03-18T02:15:08.878Z,1006.71
2023-03-18T02:20:08.941Z,1006.73
2023-03-18T02:25:08.028Z,1006.7
2023-03-18T02:30:08.092Z,1006.71
2023-03-18T02:35:08.168Z,1006.6
2023-03-18T02:40:08.267Z,1006.53
2023-03-18T02:45:08.297Z,1006.63
2023-03-18T02:50:08.424Z,1006.58
2023-03-18T02:55:08.528Z,1006.58
2023-03-18T03:00:08.597Z,1006.58
2023-03-18T03:05:08.630Z,1006.82
2023-03-18T03:10:08.680Z,1006.8
2023-03-18T03:15:08.781Z,1006.8
2023-03-18T03:20:08.879Z,1006.82
2023-03-18T03:25:08.934Z,1006.92
2023-03-18T03:30:08.010Z,1006.96
2023-03-18T03:35:08.060Z,1007.01
2023-03-18T03:40:08.081Z,1006.97
2023-03-18T03:45:08.135Z,1007.04
2023-03-18T03:50:08.219Z,1007.18
2023-03-18T03:55:11.803Z,1007.28
2023-03-18T04:00:08.862Z,1007.21
2023-03-18T04:05:08.899Z,1007.16
2023-03-18T04:10:09.000Z,1007.18
2023-03-18T04:15:08.013Z,1007.18
2023-03-18T04:20:08.070Z,1007.24
2023-03-18T04:25:08.238Z,1007.34
2023-03-18T04:30:08.298Z,1007.34
2023-03-18T04:35:08.403Z,1007.34
2023-03-18T04:40:08.472Z,1007.42
2023-03-18T04:45:08.577Z,1007.42
2023-03-18T04:50:08.617Z,1007.39
2023-03-18T04:55:08.688Z,1007.49
2023-03-18T05:00:11.367Z,1007.59
2023-03-18T05:05:03.088Z,1007.59
2023-03-18T05:10:03.867Z,1007.59
2023-03-18T05:15:03.973Z,1007.53
2023-03-18T05:20:02.334Z,1007.56
2023-03-18T05:25:02.706Z,1007.62
2023-03-18T05:30:02.885Z,1007.63
2023-03-18T05:35:03.966Z,1007.7
2023-03-18T05:40:02.510Z,1007.68
2023-03-18T05:45:02.661Z,1007.66
2023-03-18T05:50:03.059Z,1007.64
2023-03-18T05:55:02.198Z,1007.74
2023-03-18T06:00:02.816Z,1007.84
2023-03-18T06:05:03.046Z,1007.89
2023-03-18T06:10:02.243Z,1008.03
2023-03-18T06:15:02.414Z,1008.01
2023-03-18T06:20:02.803Z,1007.99
2023-03-18T06:25:02.980Z,1007.93
2023-03-18T06:30:02.124Z,1008.03
2023-03-18T06:35:02.294Z,1008.03
2023-03-18T06:40:02.646Z,1008.19
2023-03-18T06:45:02.905Z,1008.19
2023-03-18T06:50:03.156Z,1008.26
2023-03-18T06:55:03.269Z,1008.41
2023-03-18T07:00:02.493Z,1008.41
2023-03-18T07:05:02.685Z,1008.41
2023-03-18T07:10:02.960Z,1008.57
2023-03-18T07:15:02.140Z,1008.48
2023-03-18T07:20:02.620Z,1008.45
2023-03-18T07:25:03.155Z,1008.38
2023-03-18T07:30:03.042Z,1008.5
2023-03-18T07:35:02.154Z,1008.43
2023-03-18T07:40:02.472Z,1008.43
2023-03-18T07:45:02.854Z,1008.43
2023-03-18T07:50:02.970Z,1008.43
2023-03-18T07:55:02.187Z,1008.71
2023-03-18T08:00:02.350Z,1008.75
2023-03-18T08:05:03.541Z,1008.85
2023-03-18T08:10:02.807Z,1008.76
2023-03-18T08:15:02.964Z,1008.72
2023-03-18T08:20:02.222Z,1008.85
2023-03-18T08:25:02.427Z,1008.96
2023-03-18T08:30:03.986Z,1009.0
2023-03-18T08:35:02.937Z,1009.1
2023-03-18T08:40:02.290Z,1009.11
2023-03-18T08:45:02.459Z,1009.11
2023-03-18T08:50:02.661Z,1009.11
2023-03-18T08:55:02.789Z,1009.1
2023-03-18T09:00:02.959Z,1009.15
2023-03-18T09:05:02.119Z,1009.19
2023-03-18T09:10:02.382Z,1009.19
2023-03-18T09:15:02.821Z,1009.19
2023-03-18T09:20:03.118Z,1009.19
2023-03-18T09:25:02.882Z,1009.28
2023-03-18T09:30:03.166Z,1009.29
2023-03-18T09:35:02.506Z,1009.33
2023-03-18T09:40:02.748Z,1009.35
2023-03-18T09:45:03.107Z,1009.34
2023-03-18T09:50:02.266Z,1009.45
2023-03-18T09:55:12.958Z,1009.5
2023-03-18T10:00:02.624Z,1009.53
2023-03-18T10:05:02.901Z,1009.49
2023-03-18T10:10:03.299Z,1009.52
2023-03-18T10:15:02.604Z,1009.57
2023-03-18T10:20:02.761Z,1009.66
2023-03-18T10:25:03.333Z,1009.63
2023-03-18T10:30:02.716Z,1009.73
2023-03-18T10:35:02.888Z,1009.73
2023-03-18T10:40:03.282Z,1009.56
2023-03-18T10:45:02.517Z,1009.56
2023-03-18T10:50:02.940Z,1009.66
2023-03-18T10:55:02.256Z,1009.68
2023-03-18T11:00:02.386Z,1009.59
2023-03-18T11:05:02.854Z,1009.54
2023-03-18T11:10:03.380Z,1009.49
2023-03-18T11:15:02.585Z,1009.41
2023-03-18T11:20:02.879Z,1009.4
2023-03-18T11:25:03.084Z,1009.35
2023-03-18T11:30:02.611Z,1009.28
2023-03-18T11:35:02.985Z,1009.3
2023-03-18T11:40:02.132Z,1009.19
2023-03-18T11:45:02.339Z,1009.2
2023-03-18T11:50:03.084Z,1009.17
2023-03-18T11:55:02.371Z,1009.2
2023-03-18T12:00:02.711Z,1009.2
2023-03-18T12:05:02.995Z,1009.2
2023-03-18T12:10:02.225Z,1009.27
2023-03-18T12:15:02.852Z,1009.25
2023-03-18T12:20:03.900Z,1009.21
2023-03-18T12:25:03.080Z,1009.13
2023-03-18T12:30:02.267Z,1008.99
2023-03-18T12:35:08.518Z,1009.16
2023-03-18T12:40:02.772Z,1009.12
2023-03-18T12:45:03.168Z,1009.13
2023-03-18T12:50:02.462Z,1009.19
2023-03-18T12:55:02.695Z,1009.16
2023-03-18T13:00:02.936Z,1009.06
2023-03-18T13:05:02.205Z,1009.04
2023-03-18T13:10:02.324Z,1009.07
2023-03-18T13:15:12.462Z,1009.07
2023-03-18T13:20:03.136Z,1009.07
2023-03-18T13:25:02.403Z,1008.96
2023-03-18T13:30:02.604Z,1009.03
2023-03-18T13:35:02.920Z,1008.96
2023-03-18T13:40:03.049Z,1009.03
2023-03-18T13:45:02.401Z,1008.98
2023-03-18T13:50:02.654Z,1008.95
2023-03-18T13:55:02.816Z,1008.92
2023-03-18T14:00:14.778Z,1008.98
2023-03-18T14:05:03.068Z,1008.91
2023-03-18T14:10:17.744Z,1008.89
2023-03-18T14:15:02.940Z,1008.88
2023-03-18T14:20:02.146Z,1008.9
2023-03-18T14:25:06.117Z,1008.9
2023-03-18T14:30:12.318Z,1008.86
2023-03-18T14:35:02.628Z,1008.83
2023-03-18T14:40:03.099Z,1008.83
2023-03-18T14:45:02.300Z,1008.76
2023-03-18T14:50:02.571Z,1008.71
2023-03-18T14:55:02.719Z,1008.69
2023-03-18T15:00:02.860Z,1008.67
2023-03-18T15:05:03.194Z,1008.72
2023-03-18T15:10:02.453Z,1008.72
2023-03-18T15:15:02.986Z,1008.62
2023-03-18T15:20:02.187Z,1008.64
2023-03-18T15:25:02.624Z,1008.64
2023-03-18T15:30:02.940Z,1008.61
2023-03-18T15:35:02.093Z,1008.62
2023-03-18T15:40:02.499Z,1008.62
2023-03-18T15:45:02.619Z,1008.57
2023-03-18T15:50:02.796Z,1008.5
2023-03-18T15:55:02.989Z,1008.55
2023-03-18T16:00:02.138Z,1008.55
2023-03-18T16:05:02.496Z,1008.58
2023-03-18T16:10:03.003Z,1008.55
2023-03-18T16:15:02.183Z,1008.55
2023-03-18T16:20:02.378Z,1008.54
2023-03-18T16:25:02.553Z,1008.59
2023-03-18T16:30:02.929Z,1008.49
2023-03-18T16:35:02.172Z,1008.64
2023-03-18T16:40:02.358Z,1008.66
2023-03-18T16:45:02.682Z,1008.6
2023-03-18T16:50:02.893Z,1008.65
2023-03-18T16:55:03.133Z,1008.65
2023-03-18T17:00:02.285Z,1008.7
2023-03-18T17:05:02.454Z,1008.68
2023-03-18T17:10:02.761Z,1008.67
2023-03-18T17:15:02.933Z,1008.83
2023-03-18T17:20:04.072Z,1008.86
2023-03-18T17:25:02.324Z,1008.74
2023-03-18T17:30:02.825Z,1008.85
2023-03-18T17:35:02.980Z,1008.78
2023-03-18T17:40:02.190Z,1008.76
2023-03-18T17:45:02.473Z,1008.8
2023-03-18T17:50:02.693Z,1008.85
2023-03-18T17:55:02.806Z,1008.81
2023-03-18T18:00:03.078Z,1008.8
2023-03-18T18:05:02.457Z,1008.8
2023-03-18T18:10:02.603Z,1008.83
2023-03-18T18:15:03.048Z,1008.78
2023-03-18T18:20:02.243Z,1008.8
2023-03-18T18:25:02.572Z,1008.87
2023-03-18T18:30:02.832Z,1008.82
2023-03-18T18:35:03.045Z,1008.9
2023-03-18T18:40:02.399Z,1008.96
2023-03-18T18:45:02.581Z,1008.91
2023-03-18T18:50:02.755Z,1009.0
2023-03-18T18:55:03.098Z,1009.06
2023-03-18T19:00:02.182Z,1009.16
2023-03-18T19:05:02.499Z,1009.14
2023-03-18T19:10:02.671Z,1009.17
2023-03-18T19:15:02.848Z,1009.16
2023-03-18T19:20:03.221Z,1009.2
2023-03-18T19:25:02.365Z,1009.2
2023-03-18T19:30:02.637Z,1009.23
2023-03-18T19:35:02.839Z,1009.2
2023-03-18T19:40:02.949Z,1009.24
2023-03-18T19:45:02.238Z,1009.27
2023-03-18T19:50:02.475Z,1009.26
2023-03-18T19:55:02.771Z,1009.33
2023-03-18T20:00:02.930Z,1009.35
2023-03-18T20:05:03.147Z,1009.36
2023-03-18T20:10:02.383Z,1009.31
2023-03-18T20:15:02.653Z,1009.32
2023-03-18T20:20:02.884Z,1009.29
2023-03-18T20:25:03.056Z,1009.33
2023-03-18T20:30:02.281Z,1009.39
2023-03-18T20:35:03.767Z,1009.36
2023-03-18T20:40:02.968Z,1009.33
2023-03-18T20:45:02.588Z,1009.42
2023-03-18T20:50:02.885Z,1009.36
2023-03-18T20:55:03.093Z,1009.38
2023-03-18T21:00:02.390Z,1009.4
2023-03-18T21:05:02.699Z,1009.4
2023-03-18T21:10:04.467Z,1009.4
2023-03-18T21:15:02.571Z,1009.4
2023-03-18T21:20:19.289Z,1009.85
2023-03-18T21:25:02.747Z,1009.87
2023-03-18T21:30:02.982Z,1009.86
2023-03-18T21:35:02.401Z,1009.86
2023-03-18T21:40:02.538Z,1009.81
2023-03-18T21:45:02.990Z,1009.86
2023-03-18T21:50:02.228Z,1009.86
2023-03-18T21:55:02.333Z,1009.83
2023-03-18T22:00:02.909Z,1009.78
2023-03-18T22:05:03.123Z,1009.8
2023-03-18T22:10:02.423Z,1009.76
2023-03-18T22:15:02.849Z,1009.67
2023-03-18T22:20:03.063Z,1009.64
2023-03-18T22:25:02.294Z,1009.64
2023-03-18T22:30:02.719Z,1009.37
2023-03-18T22:35:03.234Z,1009.36
2023-03-18T22:40:02.515Z,1009.36
2023-03-18T22:45:02.882Z,1009.36
2023-03-18T22:50:03.093Z,1009.32
2023-03-18T22:55:02.473Z,1009.3
2023-03-18T23:00:02.687Z,1009.3
2023-03-18T23:05:22.612Z,1009.3
2023-03-18T23:10:08.638Z,1009.3
2023-03-18T23:15:08.711Z,1009.37
2023-03-18T23:20:08.788Z,1009.46
2023-03-18T23:25:08.865Z,1009.46
2023-03-18T23:30:08.892Z,1009.46
2023-03-18T23:35:08.989Z,1009.87
2023-03-18T23:40:08.096Z,1009.8
2023-03-18T23:45:08.372Z,1009.8
2023-03-18T23:50:08.474Z,1009.8
2023-03-18T23:55:17.849Z,1009.84
